sensor_id;sensor_type;location;lat;lon;timestamp;pressure;altitude;pressure_sealevel;temperature;humidity
56825;BME280;42705;50.326;18.772;2024-01-30T00:03:12;100281.47;;;1.21;63.77
56825;BME280;42705;50.326;18.772;2024-01-30T00:08:34;100285.23;;;1.14;63.33
56825;BME280;42705;50.326;18.772;2024-01-30T00:13:56;100279.54;;;1.15;63.62
56825;BME280;42705;50.326;18.772;2024-01-30T00:19:18;100282.63;;;1.14;63.75
56825;BME280;42705;50.326;18.772;2024-01-30T00:24:40;100280.45;;;1.12;63.70
56825;BME280;42705;50.326;18.772;2024-01-30T00:30:01;100273.54;;;1.06;63.77
56825;BME280;42705;50.326;18.772;2024-01-30T00:35:24;100275.78;;;0.98;63.84
56825;BME280;42705;50.326;18.772;2024-01-30T00:40:46;100265.63;;;0.98;63.94
56825;BME280;42705;50.326;18.772;2024-01-30T00:46:07;100265.02;;;1.03;63.84
56825;BME280;42705;50.326;18.772;2024-01-30T00:51:29;100261.64;;;1.00;64.10
56825;BME280;42705;50.326;18.772;2024-01-30T00:56:51;100263.48;;;0.94;64.22
56825;BME280;42705;50.326;18.772;2024-01-30T01:02:13;100262.54;;;0.90;64.21
56825;BME280;42705;50.326;18.772;2024-01-30T01:07:38;100262.39;;;0.89;64.30
56825;BME280;42705;50.326;18.772;2024-01-30T01:13:02;100253.14;;;0.87;64.35
56825;BME280;42705;50.326;18.772;2024-01-30T01:18:23;100245.00;;;0.82;64.15
56825;BME280;42705;50.326;18.772;2024-01-30T01:23:45;100243.29;;;0.73;64.60
56825;BME280;42705;50.326;18.772;2024-01-30T01:29:07;100234.91;;;0.71;64.57
56825;BME280;42705;50.326;18.772;2024-01-30T01:34:33;100238.70;;;0.71;64.77
56825;BME280;42705;50.326;18.772;2024-01-30T01:39:55;100237.73;;;0.68;64.94
56825;BME280;42705;50.326;18.772;2024-01-30T01:45:17;100235.23;;;0.65;65.04
56825;BME280;42705;50.326;18.772;2024-01-30T01:50:41;100235.42;;;0.63;64.90
56825;BME280;42705;50.326;18.772;2024-01-30T01:56:05;100228.52;;;0.64;64.98
56825;BME280;42705;50.326;18.772;2024-01-30T02:01:28;100228.89;;;0.64;65.28
56825;BME280;42705;50.326;18.772;2024-01-30T02:06:51;100223.64;;;0.60;65.20
56825;BME280;42705;50.326;18.772;2024-01-30T02:12:13;100218.23;;;0.54;65.18
56825;BME280;42705;50.326;18.772;2024-01-30T02:17:35;100219.16;;;0.52;65.18
56825;BME280;42705;50.326;18.772;2024-01-30T02:22:58;100219.46;;;0.53;65.61
56825;BME280;42705;50.326;18.772;2024-01-30T02:28:22;100213.94;;;0.54;65.44
56825;BME280;42705;50.326;18.772;2024-01-30T02:33:45;100209.23;;;0.49;65.55
56825;BME280;42705;50.326;18.772;2024-01-30T02:39:06;100210.09;;;0.41;65.57
56825;BME280;42705;50.326;18.772;2024-01-30T02:44:28;100211.57;;;0.36;65.46
56825;BME280;42705;50.326;18.772;2024-01-30T02:49:50;100215.20;;;0.35;65.70
56825;BME280;42705;50.326;18.772;2024-01-30T02:55:12;100211.18;;;0.39;65.97
56825;BME280;42705;50.326;18.772;2024-01-30T03:00:34;100200.52;;;0.40;66.12
56825;BME280;42705;50.326;18.772;2024-01-30T03:05:56;100203.77;;;0.40;65.88
56825;BME280;42705;50.326;18.772;2024-01-30T03:11:18;100203.28;;;0.38;66.06
56825;BME280;42705;50.326;18.772;2024-01-30T03:16:40;100204.59;;;0.41;65.93
56825;BME280;42705;50.326;18.772;2024-01-30T03:22:02;100209.20;;;0.43;65.94
56825;BME280;42705;50.326;18.772;2024-01-30T03:27:24;100213.04;;;0.40;66.14
56825;BME280;42705;50.326;18.772;2024-01-30T03:32:46;100205.05;;;0.35;66.14
56825;BME280;42705;50.326;18.772;2024-01-30T03:38:08;100202.80;;;0.37;66.21
56825;BME280;42705;50.326;18.772;2024-01-30T03:43:30;100202.41;;;0.39;66.12
56825;BME280;42705;50.326;18.772;2024-01-30T03:48:52;100196.34;;;0.33;66.21
56825;BME280;42705;50.326;18.772;2024-01-30T03:54:14;100194.42;;;0.26;66.09
56825;BME280;42705;50.326;18.772;2024-01-30T04:00:09;100198.88;;;0.26;66.29
56825;BME280;42705;50.326;18.772;2024-01-30T04:05:35;100192.90;;;0.25;66.31
56825;BME280;42705;50.326;18.772;2024-01-30T04:10:57;100190.36;;;0.23;66.85
56825;BME280;42705;50.326;18.772;2024-01-30T04:16:20;100189.41;;;0.19;66.33
56825;BME280;42705;50.326;18.772;2024-01-30T04:21:43;100189.92;;;0.20;66.33
56825;BME280;42705;50.326;18.772;2024-01-30T04:27:05;100189.00;;;0.22;66.57
56825;BME280;42705;50.326;18.772;2024-01-30T04:32:27;100188.71;;;0.20;66.40
56825;BME280;42705;50.326;18.772;2024-01-30T04:37:49;100191.34;;;0.16;66.54
56825;BME280;42705;50.326;18.772;2024-01-30T04:43:11;100190.72;;;0.14;66.65
56825;BME280;42705;50.326;18.772;2024-01-30T04:48:32;100194.96;;;0.15;66.55
56825;BME280;42705;50.326;18.772;2024-01-30T04:53:54;100201.16;;;0.16;66.45
56825;BME280;42705;50.326;18.772;2024-01-30T04:59:16;100197.46;;;0.11;66.34
56825;BME280;42705;50.326;18.772;2024-01-30T05:04:38;100199.63;;;0.06;66.55
56825;BME280;42705;50.326;18.772;2024-01-30T05:10:00;100197.09;;;0.05;66.53
56825;BME280;42705;50.326;18.772;2024-01-30T05:15:22;100198.23;;;0.07;66.67
56825;BME280;42705;50.326;18.772;2024-01-30T05:20:44;100203.56;;;0.07;66.54
56825;BME280;42705;50.326;18.772;2024-01-30T05:26:06;100205.15;;;0.05;66.34
56825;BME280;42705;50.326;18.772;2024-01-30T05:31:28;100209.02;;;0.01;66.35
56825;BME280;42705;50.326;18.772;2024-01-30T05:36:50;100208.01;;;-0.00;66.31
56825;BME280;42705;50.326;18.772;2024-01-30T05:42:12;100202.59;;;0.05;66.58
56825;BME280;42705;50.326;18.772;2024-01-30T05:47:34;100211.27;;;0.08;66.38
56825;BME280;42705;50.326;18.772;2024-01-30T05:52:56;100203.75;;;0.07;66.58
56825;BME280;42705;50.326;18.772;2024-01-30T05:58:19;100202.29;;;0.03;66.50
56825;BME280;42705;50.326;18.772;2024-01-30T06:03:40;100203.27;;;0.05;66.23
56825;BME280;42705;50.326;18.772;2024-01-30T06:09:02;100204.92;;;0.08;66.43
56825;BME280;42705;50.326;18.772;2024-01-30T06:14:24;100200.10;;;0.09;66.30
56825;BME280;42705;50.326;18.772;2024-01-30T06:19:46;100197.20;;;0.07;66.06
56825;BME280;42705;50.326;18.772;2024-01-30T06:25:08;100202.92;;;0.05;65.94
56825;BME280;42705;50.326;18.772;2024-01-30T06:30:30;100199.21;;;0.10;66.38
56825;BME280;42705;50.326;18.772;2024-01-30T06:35:51;100202.06;;;0.13;65.87
56825;BME280;42705;50.326;18.772;2024-01-30T06:41:13;100202.23;;;0.14;66.32
56825;BME280;42705;50.326;18.772;2024-01-30T06:46:35;100201.55;;;0.13;65.85
56825;BME280;42705;50.326;18.772;2024-01-30T06:51:57;100208.64;;;0.11;65.96
56825;BME280;42705;50.326;18.772;2024-01-30T06:57:19;100209.98;;;0.12;65.66
56825;BME280;42705;50.326;18.772;2024-01-30T07:02:40;100204.00;;;0.20;66.09
56825;BME280;42705;50.326;18.772;2024-01-30T07:08:03;100207.59;;;0.29;66.00
56825;BME280;42705;50.326;18.772;2024-01-30T07:13:25;100213.30;;;0.36;65.94
56825;BME280;42705;50.326;18.772;2024-01-30T07:18:46;100215.98;;;0.39;65.68
56825;BME280;42705;50.326;18.772;2024-01-30T07:24:08;100220.55;;;0.43;65.56
56825;BME280;42705;50.326;18.772;2024-01-30T07:29:30;100218.17;;;0.49;65.79
56825;BME280;42705;50.326;18.772;2024-01-30T07:34:52;100225.00;;;0.60;65.47
56825;BME280;42705;50.326;18.772;2024-01-30T07:40:14;100221.66;;;0.71;65.57
56825;BME280;42705;50.326;18.772;2024-01-30T07:45:36;100221.34;;;0.79;65.71
56825;BME280;42705;50.326;18.772;2024-01-30T07:50:59;100221.89;;;0.84;65.39
56825;BME280;42705;50.326;18.772;2024-01-30T07:56:21;100220.02;;;0.91;65.23
56825;BME280;42705;50.326;18.772;2024-01-30T08:01:43;100216.73;;;1.00;65.40
56825;BME280;42705;50.326;18.772;2024-01-30T08:07:05;100226.12;;;1.18;65.07
56825;BME280;42705;50.326;18.772;2024-01-30T08:12:27;100225.73;;;1.33;65.07
56825;BME280;42705;50.326;18.772;2024-01-30T08:17:49;100226.35;;;1.43;64.44
56825;BME280;42705;50.326;18.772;2024-01-30T08:23:11;100227.81;;;1.54;64.52
56825;BME280;42705;50.326;18.772;2024-01-30T08:28:32;100221.70;;;1.64;64.27
56825;BME280;42705;50.326;18.772;2024-01-30T08:33:54;100225.03;;;1.76;64.13
56825;BME280;42705;50.326;18.772;2024-01-30T08:39:16;100226.95;;;1.94;64.03
56825;BME280;42705;50.326;18.772;2024-01-30T08:44:38;100224.62;;;2.11;63.30
56825;BME280;42705;50.326;18.772;2024-01-30T08:50:00;100221.71;;;2.21;63.01
56825;BME280;42705;50.326;18.772;2024-01-30T08:55:22;100228.49;;;2.32;62.54
56825;BME280;42705;50.326;18.772;2024-01-30T09:00:44;100221.99;;;2.42;62.12
56825;BME280;42705;50.326;18.772;2024-01-30T09:06:10;100224.64;;;2.52;61.79
56825;BME280;42705;50.326;18.772;2024-01-30T09:11:32;100222.56;;;2.64;61.62
56825;BME280;42705;50.326;18.772;2024-01-30T09:16:54;100223.92;;;2.76;61.44
56825;BME280;42705;50.326;18.772;2024-01-30T09:22:15;100226.14;;;2.88;61.12
56825;BME280;42705;50.326;18.772;2024-01-30T09:27:37;100222.51;;;3.00;60.28
56825;BME280;42705;50.326;18.772;2024-01-30T09:32:59;100214.42;;;3.10;59.91
56825;BME280;42705;50.326;18.772;2024-01-30T09:38:21;100220.64;;;3.20;59.80
56825;BME280;42705;50.326;18.772;2024-01-30T09:43:47;100212.77;;;3.34;59.70
56825;BME280;42705;50.326;18.772;2024-01-30T09:49:13;100218.25;;;3.47;59.25
56825;BME280;42705;50.326;18.772;2024-01-30T09:54:36;100213.23;;;3.57;58.44
56825;BME280;42705;50.326;18.772;2024-01-30T09:59:58;100206.75;;;3.65;58.01
56825;BME280;42705;50.326;18.772;2024-01-30T10:05:20;100205.09;;;3.73;58.26
56825;BME280;42705;50.326;18.772;2024-01-30T10:10:49;100192.84;;;3.82;57.79
56825;BME280;42705;50.326;18.772;2024-01-30T10:16:16;100187.23;;;3.89;57.62
56825;BME280;42705;50.326;18.772;2024-01-30T10:21:38;100181.52;;;3.99;57.85
56825;BME280;42705;50.326;18.772;2024-01-30T10:27:00;100173.95;;;4.12;57.70
56825;BME280;42705;50.326;18.772;2024-01-30T10:32:22;100169.58;;;4.23;57.45
56825;BME280;42705;50.326;18.772;2024-01-30T10:37:47;100165.92;;;4.38;57.17
56825;BME280;42705;50.326;18.772;2024-01-30T10:43:10;100158.21;;;4.54;57.07
56825;BME280;42705;50.326;18.772;2024-01-30T10:48:36;100154.98;;;4.70;56.93
56825;BME280;42705;50.326;18.772;2024-01-30T10:54:05;100148.14;;;4.86;56.31
56825;BME280;42705;50.326;18.772;2024-01-30T10:59:27;100139.12;;;4.99;56.00
56825;BME280;42705;50.326;18.772;2024-01-30T11:04:54;100139.23;;;5.13;55.39
56825;BME280;42705;50.326;18.772;2024-01-30T11:10:17;100132.05;;;5.28;54.93
56825;BME280;42705;50.326;18.772;2024-01-30T11:15:40;100139.17;;;5.40;53.73
56825;BME280;42705;50.326;18.772;2024-01-30T11:21:04;100137.80;;;5.43;53.05
56825;BME280;42705;50.326;18.772;2024-01-30T11:26:30;100135.13;;;5.54;52.85
56825;BME280;42705;50.326;18.772;2024-01-30T11:31:57;100126.61;;;5.66;52.64
56825;BME280;42705;50.326;18.772;2024-01-30T11:37:21;100117.16;;;5.84;52.39
56825;BME280;42705;50.326;18.772;2024-01-30T11:42:43;100107.44;;;6.04;52.30
56825;BME280;42705;50.326;18.772;2024-01-30T11:48:06;100104.54;;;6.22;52.02
56825;BME280;42705;50.326;18.772;2024-01-30T11:53:29;100098.86;;;6.43;51.76
56825;BME280;42705;50.326;18.772;2024-01-30T11:58:51;100094.45;;;6.59;51.05
56825;BME280;42705;50.326;18.772;2024-01-30T12:04:14;100086.29;;;6.74;50.17
56825;BME280;42705;50.326;18.772;2024-01-30T12:09:36;100073.63;;;8.25;48.55
56825;BME280;42705;50.326;18.772;2024-01-30T12:14:58;100056.02;;;11.05;44.98
56825;BME280;42705;50.326;18.772;2024-01-30T12:20:20;100051.90;;;13.39;41.45
56825;BME280;42705;50.326;18.772;2024-01-30T12:25:43;100036.50;;;15.53;38.43
56825;BME280;42705;50.326;18.772;2024-01-30T12:31:04;100024.95;;;17.99;34.63
56825;BME280;42705;50.326;18.772;2024-01-30T12:36:28;100014.45;;;20.02;32.72
56825;BME280;42705;50.326;18.772;2024-01-30T12:41:51;100008.50;;;21.41;30.28
56825;BME280;42705;50.326;18.772;2024-01-30T12:47:13;100003.39;;;22.44;28.74
56825;BME280;42705;50.326;18.772;2024-01-30T12:52:39;99995.08;;;23.63;28.12
56825;BME280;42705;50.326;18.772;2024-01-30T12:58:01;99986.37;;;24.50;26.39
56825;BME280;42705;50.326;18.772;2024-01-30T13:03:23;99985.80;;;24.72;25.15
56825;BME280;42705;50.326;18.772;2024-01-30T13:08:45;99982.73;;;24.84;24.65
56825;BME280;42705;50.326;18.772;2024-01-30T13:14:07;99983.16;;;24.83;24.02
56825;BME280;42705;50.326;18.772;2024-01-30T13:19:29;99983.95;;;24.74;23.32
56825;BME280;42705;50.326;18.772;2024-01-30T13:24:51;99982.91;;;24.62;23.12
56825;BME280;42705;50.326;18.772;2024-01-30T13:30:13;99980.19;;;24.77;22.88
56825;BME280;42705;50.326;18.772;2024-01-30T13:35:35;99973.02;;;25.07;23.77
56825;BME280;42705;50.326;18.772;2024-01-30T13:40:57;99972.27;;;25.29;22.62
56825;BME280;42705;50.326;18.772;2024-01-30T13:46:19;99981.75;;;24.50;22.08
56825;BME280;42705;50.326;18.772;2024-01-30T13:51:41;99975.39;;;24.11;22.21
56825;BME280;42705;50.326;18.772;2024-01-30T13:57:04;99974.60;;;23.85;22.61
56825;BME280;42705;50.326;18.772;2024-01-30T14:02:26;99972.77;;;23.40;22.54
56825;BME280;42705;50.326;18.772;2024-01-30T14:07:48;99963.85;;;22.74;22.86
56825;BME280;42705;50.326;18.772;2024-01-30T14:13:11;99965.77;;;22.05;23.46
56825;BME280;42705;50.326;18.772;2024-01-30T14:18:33;99969.16;;;21.56;23.93
56825;BME280;42705;50.326;18.772;2024-01-30T14:23:55;99974.61;;;20.78;24.06
56825;BME280;42705;50.326;18.772;2024-01-30T14:29:17;99970.18;;;20.29;24.78
56825;BME280;42705;50.326;18.772;2024-01-30T14:34:39;99974.40;;;19.85;24.93
56825;BME280;42705;50.326;18.772;2024-01-30T14:40:01;99969.91;;;19.28;25.50
56825;BME280;42705;50.326;18.772;2024-01-30T14:45:23;99964.73;;;19.07;26.20
56825;BME280;42705;50.326;18.772;2024-01-30T14:50:45;99963.63;;;18.49;26.10
56825;BME280;42705;50.326;18.772;2024-01-30T14:56:08;99960.22;;;17.35;26.96
56825;BME280;42705;50.326;18.772;2024-01-30T15:01:32;99962.31;;;16.09;27.65
56825;BME280;42705;50.326;18.772;2024-01-30T15:06:54;99964.75;;;14.87;29.03
56825;BME280;42705;50.326;18.772;2024-01-30T15:12:16;99967.73;;;13.95;30.15
56825;BME280;42705;50.326;18.772;2024-01-30T15:17:38;99972.61;;;12.75;31.52
56825;BME280;42705;50.326;18.772;2024-01-30T15:23:00;99971.68;;;11.04;33.36
56825;BME280;42705;50.326;18.772;2024-01-30T15:28:34;99976.92;;;9.62;35.02
56825;BME280;42705;50.326;18.772;2024-01-30T15:33:57;99980.14;;;8.49;36.68
56825;BME280;42705;50.326;18.772;2024-01-30T15:39:19;99989.06;;;7.67;37.84
56825;BME280;42705;50.326;18.772;2024-01-30T15:44:41;99991.16;;;6.97;39.02
56825;BME280;42705;50.326;18.772;2024-01-30T15:50:05;99996.20;;;6.41;40.15
56825;BME280;42705;50.326;18.772;2024-01-30T15:55:27;99998.04;;;5.95;41.12
56825;BME280;42705;50.326;18.772;2024-01-30T16:00:49;100000.73;;;5.55;42.03
56825;BME280;42705;50.326;18.772;2024-01-30T16:06:12;100003.39;;;5.22;43.04
56825;BME280;42705;50.326;18.772;2024-01-30T16:11:36;100005.27;;;4.95;44.26
56825;BME280;42705;50.326;18.772;2024-01-30T16:16:58;99999.80;;;4.72;45.80
56825;BME280;42705;50.326;18.772;2024-01-30T16:22:20;99998.33;;;4.54;46.70
56825;BME280;42705;50.326;18.772;2024-01-30T16:27:42;99997.02;;;4.39;47.21
56825;BME280;42705;50.326;18.772;2024-01-30T16:33:05;99999.56;;;4.27;47.95
56825;BME280;42705;50.326;18.772;2024-01-30T16:38:28;100000.84;;;4.17;48.25
56825;BME280;42705;50.326;18.772;2024-01-30T16:43:51;100002.63;;;4.07;48.68
56825;BME280;42705;50.326;18.772;2024-01-30T16:49:13;100003.86;;;3.97;49.05
56825;BME280;42705;50.326;18.772;2024-01-30T16:54:35;100000.27;;;3.87;49.43
56825;BME280;42705;50.326;18.772;2024-01-30T16:59:57;100003.00;;;3.79;49.76
56825;BME280;42705;50.326;18.772;2024-01-30T17:05:19;100000.17;;;3.71;50.00
56825;BME280;42705;50.326;18.772;2024-01-30T17:10:41;99999.45;;;3.64;49.93
56825;BME280;42705;50.326;18.772;2024-01-30T17:16:03;99996.77;;;3.57;50.34
56825;BME280;42705;50.326;18.772;2024-01-30T17:21:25;99996.77;;;3.51;50.61
56825;BME280;42705;50.326;18.772;2024-01-30T17:26:47;99996.24;;;3.47;50.78
56825;BME280;42705;50.326;18.772;2024-01-30T17:32:11;99997.29;;;3.42;50.79
56825;BME280;42705;50.326;18.772;2024-01-30T17:37:33;99991.48;;;3.40;51.03
56825;BME280;42705;50.326;18.772;2024-01-30T17:42:56;99987.70;;;3.40;51.04
56825;BME280;42705;50.326;18.772;2024-01-30T17:48:18;99989.54;;;3.37;50.95
56825;BME280;42705;50.326;18.772;2024-01-30T17:53:40;99992.95;;;3.32;51.15
56825;BME280;42705;50.326;18.772;2024-01-30T17:59:03;99997.95;;;3.33;50.92
56825;BME280;42705;50.326;18.772;2024-01-30T18:04:25;100004.27;;;3.31;50.99
56825;BME280;42705;50.326;18.772;2024-01-30T18:09:46;100002.17;;;3.31;50.96
56825;BME280;42705;50.326;18.772;2024-01-30T18:15:09;100002.57;;;3.30;50.94
56825;BME280;42705;50.326;18.772;2024-01-30T18:20:31;100002.69;;;3.27;51.15
56825;BME280;42705;50.326;18.772;2024-01-30T18:25:54;100007.73;;;3.26;51.22
56825;BME280;42705;50.326;18.772;2024-01-30T18:31:22;99997.46;;;3.23;51.15
56825;BME280;42705;50.326;18.772;2024-01-30T18:36:44;99997.73;;;3.20;51.27
56825;BME280;42705;50.326;18.772;2024-01-30T18:42:06;100002.70;;;3.16;51.10
56825;BME280;42705;50.326;18.772;2024-01-30T18:47:28;99999.78;;;3.11;51.32
56825;BME280;42705;50.326;18.772;2024-01-30T18:52:51;99997.00;;;3.07;51.44
56825;BME280;42705;50.326;18.772;2024-01-30T18:58:14;99998.66;;;3.03;51.56
56825;BME280;42705;50.326;18.772;2024-01-30T19:03:36;100004.14;;;3.00;51.37
56825;BME280;42705;50.326;18.772;2024-01-30T19:08:58;100005.52;;;2.95;51.42
56825;BME280;42705;50.326;18.772;2024-01-30T19:14:20;100012.05;;;2.90;51.79
56825;BME280;42705;50.326;18.772;2024-01-30T19:19:43;100013.10;;;2.85;51.50
56825;BME280;42705;50.326;18.772;2024-01-30T19:25:05;100013.27;;;2.80;51.76
56825;BME280;42705;50.326;18.772;2024-01-30T19:30:27;100024.23;;;2.77;52.08
56825;BME280;42705;50.326;18.772;2024-01-30T19:35:50;100018.58;;;2.76;51.89
56825;BME280;42705;50.326;18.772;2024-01-30T19:41:13;100009.73;;;2.72;52.02
56825;BME280;42705;50.326;18.772;2024-01-30T19:46:36;100018.38;;;2.67;52.23
56825;BME280;42705;50.326;18.772;2024-01-30T19:52:01;100016.23;;;2.63;52.14
56825;BME280;42705;50.326;18.772;2024-01-30T19:57:25;100007.93;;;2.59;52.23
56825;BME280;42705;50.326;18.772;2024-01-30T20:02:47;100011.77;;;2.52;52.43
56825;BME280;42705;50.326;18.772;2024-01-30T20:08:09;100010.89;;;2.48;52.74
56825;BME280;42705;50.326;18.772;2024-01-30T20:13:31;100004.80;;;2.44;53.04
56825;BME280;42705;50.326;18.772;2024-01-30T20:18:53;100008.49;;;2.41;52.69
56825;BME280;42705;50.326;18.772;2024-01-30T20:24:15;100005.80;;;2.40;52.72
56825;BME280;42705;50.326;18.772;2024-01-30T20:29:37;99997.79;;;2.42;52.90
56825;BME280;42705;50.326;18.772;2024-01-30T20:35:00;99995.34;;;2.43;52.64
56825;BME280;42705;50.326;18.772;2024-01-30T20:40:22;99989.27;;;2.44;52.77
56825;BME280;42705;50.326;18.772;2024-01-30T20:45:44;99982.72;;;2.44;52.45
56825;BME280;42705;50.326;18.772;2024-01-30T20:51:06;99976.69;;;2.44;52.41
56825;BME280;42705;50.326;18.772;2024-01-30T20:56:28;99974.67;;;2.42;52.51
56825;BME280;42705;50.326;18.772;2024-01-30T21:01:52;99973.13;;;2.42;52.50
56825;BME280;42705;50.326;18.772;2024-01-30T21:07:14;99962.11;;;2.41;52.70
56825;BME280;42705;50.326;18.772;2024-01-30T21:12:38;99964.59;;;2.40;52.62
56825;BME280;42705;50.326;18.772;2024-01-30T21:18:00;99966.29;;;2.40;52.30
56825;BME280;42705;50.326;18.772;2024-01-30T21:23:25;99968.70;;;2.40;52.41
56825;BME280;42705;50.326;18.772;2024-01-30T21:28:47;99973.34;;;2.41;52.48
56825;BME280;42705;50.326;18.772;2024-01-30T21:34:10;99973.89;;;2.40;52.85
56825;BME280;42705;50.326;18.772;2024-01-30T21:39:32;99971.73;;;2.37;52.58
56825;BME280;42705;50.326;18.772;2024-01-30T21:44:55;99983.40;;;2.34;52.74
56825;BME280;42705;50.326;18.772;2024-01-30T21:50:18;99981.42;;;2.31;53.34
56825;BME280;42705;50.326;18.772;2024-01-30T21:55:41;99977.08;;;2.27;53.42
56825;BME280;42705;50.326;18.772;2024-01-30T22:01:03;99995.96;;;2.24;53.37
56825;BME280;42705;50.326;18.772;2024-01-30T22:06:26;99985.55;;;2.21;53.45
56825;BME280;42705;50.326;18.772;2024-01-30T22:11:49;99996.54;;;2.16;53.95
56825;BME280;42705;50.326;18.772;2024-01-30T22:17:10;99993.95;;;2.11;54.24
56825;BME280;42705;50.326;18.772;2024-01-30T22:22:32;99997.34;;;2.07;54.52
56825;BME280;42705;50.326;18.772;2024-01-30T22:27:55;99990.38;;;2.03;54.64
56825;BME280;42705;50.326;18.772;2024-01-30T22:33:17;99992.36;;;2.01;54.99
56825;BME280;42705;50.326;18.772;2024-01-30T22:38:42;99991.60;;;1.98;55.01
56825;BME280;42705;50.326;18.772;2024-01-30T22:44:04;99991.55;;;1.94;55.23
56825;BME280;42705;50.326;18.772;2024-01-30T22:49:27;99989.90;;;1.92;55.52
56825;BME280;42705;50.326;18.772;2024-01-30T22:54:49;99992.77;;;1.88;55.61
56825;BME280;42705;50.326;18.772;2024-01-30T23:00:11;99995.79;;;1.84;56.10
56825;BME280;42705;50.326;18.772;2024-01-30T23:05:36;99990.32;;;1.83;56.45
56825;BME280;42705;50.326;18.772;2024-01-30T23:10:58;99986.23;;;1.81;56.56
56825;BME280;42705;50.326;18.772;2024-01-30T23:16:20;99984.08;;;1.79;56.88
56825;BME280;42705;50.326;18.772;2024-01-30T23:21:42;99988.43;;;1.77;57.29
56825;BME280;42705;50.326;18.772;2024-01-30T23:27:04;99988.17;;;1.74;57.64
56825;BME280;42705;50.326;18.772;2024-01-30T23:32:26;99984.66;;;1.71;57.83
56825;BME280;42705;50.326;18.772;2024-01-30T23:37:48;99984.98;;;1.66;58.17
56825;BME280;42705;50.326;18.772;2024-01-30T23:43:10;99981.42;;;1.64;58.53
56825;BME280;42705;50.326;18.772;2024-01-30T23:48:32;99987.50;;;1.62;58.64
56825;BME280;42705;50.326;18.772;2024-01-30T23:53:54;99987.17;;;1.62;58.66
56825;BME280;42705;50.326;18.772;2024-01-30T23:59:16;99989.15;;;1.59;58.90
